| time (UTC) | temp C | wind direction | speed KPH | gust KPH | rain 1hr cm | rain 24hr cm | rain mn cm | humidity % | barometer mb |
| 20260502170440 | 22 | 28 | 1.6 | 9.7 | 0.00 | 2.97 | 0.00 | 54 | 1010.2 |
| 20260502170321 | 22 | 39 | 3.2 | 9.7 | 0.00 | 2.97 | 0.00 | 55 | 1010.2 |
| 20260502152249 | 19 | 49 | 1.6 | 8.0 | 0.00 | 3.91 | 0.00 | 68 | 1018.3 |
| 20260502152142 | 19 | 18 | 1.6 | 8.0 | 0.00 | 3.91 | 0.00 | 69 | 1018.3 |
| 20260502152010 | 19 | 350 | 0.0 | 8.0 | 0.00 | 3.91 | 0.00 | 71 | 1018.3 |
| 20260502151842 | 19 | 311 | 0.0 | 8.0 | 0.00 | 3.91 | 0.00 | 71 | 1018.3 |
| 20260502151314 | 19 | 304 | 0.0 | 6.4 | 0.00 | 3.91 | 0.00 | 71 | 1023.1 |
| 20260502151206 | 18 | 42 | 1.6 | 8.0 | 0.00 | 3.91 | 0.00 | 72 | 1023.1 |
| 20260502151057 | 18 | 305 | 0.0 | 8.0 | 0.00 | 3.91 | 0.00 | 73 | 1023.1 |
| 20260502150935 | 18 | 279 | 0.0 | 8.0 | 0.00 | 3.91 | 0.00 | 71 | 1023.1 |
| 20260502150813 | 18 | 360 | 1.6 | 8.0 | 0.00 | 3.91 | 0.00 | 71 | 1023.1 |
| 20260502150659 | 18 | 347 | 1.6 | 8.0 | 0.00 | 3.91 | 0.00 | 71 | 1023.1 |
| 20260502150414 | 18 | 313 | 1.6 | 12.9 | 0.00 | 3.91 | 0.00 | 71 | 1023.1 |
| 20260502150306 | 18 | 78 | 1.6 | 12.9 | 0.00 | 3.91 | 0.00 | 71 | 1023.1 |
| 20260502150131 | 18 | 13 | 1.6 | 12.9 | 0.00 | 3.91 | 0.00 | 72 | 1023.1 |
| 20260502130654 | 12 | 313 | 0.0 | 1.6 | 0.00 | 4.85 | 0.00 | 90 | 1021.8 |
| 20260502130525 | 12 | 327 | 0.0 | 1.6 | 0.00 | 4.85 | 0.00 | 90 | 1021.8 |
| 20260502130416 | 12 | 309 | 0.0 | 1.6 | 0.00 | 4.85 | 0.00 | 90 | 1021.8 |
| 20260502130246 | 12 | 313 | 0.0 | 1.6 | 0.00 | 4.85 | 0.00 | 90 | 1021.8 |
| 20260502130129 | 12 | 299 | 0.0 | 1.6 | 0.00 | 4.85 | 0.00 | 90 | 1021.8 |
| 20260502123730 | 11 | 319 | 0.0 | 3.2 | 0.00 | 5.36 | 0.00 | 90 | 1021.5 |
| 20260502123622 | 11 | 319 | 0.0 | 3.2 | 0.00 | 5.36 | 0.00 | 90 | 1021.5 |
| 20260502123502 | 11 | 319 | 0.0 | 3.2 | 0.00 | 5.36 | 0.00 | 90 | 1021.5 |
| 20260502123336 | 11 | 319 | 0.0 | 4.8 | 0.00 | 5.36 | 0.00 | 90 | 1021.5 |
| 20260502123227 | 11 | 319 | 0.0 | 4.8 | 0.00 | 5.36 | 0.00 | 90 | 1021.5 |
| 20260502123120 | 11 | 300 | 0.0 | 4.8 | 0.00 | 5.36 | 0.00 | 90 | 1021.5 |
| 20260502123011 | 11 | 300 | 0.0 | 4.8 | 0.00 | 5.36 | 0.00 | 90 | 1021.5 |
| 20260502122847 | 11 | 298 | 0.0 | 4.8 | 0.00 | 5.36 | 0.00 | 90 | 1021.3 |
| 20260502122718 | 11 | 298 | 0.0 | 4.8 | 0.00 | 5.36 | 0.00 | 90 | 1021.3 |
| 20260502122548 | 11 | 305 | 0.0 | 3.2 | 0.00 | 5.36 | 0.00 | 90 | 1021.3 |
| 20260502122420 | 11 | 305 | 0.0 | 0.0 | 0.00 | 5.36 | 0.00 | 90 | 1021.3 |
| 20260502122248 | 11 | 305 | 0.0 | 0.0 | 0.00 | 5.36 | 0.00 | 90 | 1021.3 |
| 20260502122117 | 11 | 305 | 0.0 | 4.8 | 0.00 | 5.36 | 0.00 | 90 | 1021.3 |
| 20260502121948 | 11 | 305 | 0.0 | 4.8 | 0.00 | 5.36 | 0.00 | 90 | 1021.3 |
| 20260502121839 | 11 | 305 | 0.0 | 4.8 | 0.00 | 5.36 | 0.00 | 90 | 1021.3 |
| 20260502121631 | 11 | 305 | 0.0 | 4.8 | 0.00 | 5.36 | 0.00 | 90 | 1021.3 |
| 20260502121524 | 11 | 305 | 0.0 | 4.8 | 0.00 | 5.36 | 0.00 | 90 | 1021.3 |
| 20260502121415 | 11 | 304 | 0.0 | 4.8 | 0.00 | 5.36 | 0.00 | 90 | 1021.3 |
| 20260502121307 | 11 | 310 | 0.0 | 3.2 | 0.00 | 5.36 | 0.00 | 90 | 1021.2 |
| 20260502121115 | 11 | 281 | 0.0 | 0.0 | 0.00 | 5.36 | 0.00 | 90 | 1021.2 |
| 20260502120946 | 11 | 281 | 0.0 | 1.6 | 0.00 | 5.36 | 0.00 | 90 | 1021.2 |
| 20260502120817 | 11 | 281 | 0.0 | 1.6 | 0.00 | 5.36 | 0.00 | 90 | 1021.2 |
| 20260502120706 | 11 | 281 | 0.0 | 1.6 | 0.00 | 5.36 | 0.00 | 90 | 1021.2 |
| 20260502120543 | 11 | 281 | 0.0 | 1.6 | 0.00 | 5.36 | 0.00 | 90 | 1021.2 |
| 20260502120434 | 11 | 281 | 0.0 | 1.6 | 0.00 | 5.36 | 0.00 | 90 | 1021.2 |
| 20260502120324 | 11 | 281 | 0.0 | 1.6 | 0.00 | 5.36 | 0.00 | 90 | 1021.2 |
| 20260502120155 | 11 | 281 | 0.0 | 1.6 | 0.00 | 5.36 | 0.00 | 90 | 1021.2 |
| 20260502115915 | 11 | 212 | 0.0 | 0.0 | 0.00 | 5.94 | 0.00 | 90 | 1020.8 |
| 20260502115745 | 11 | 202 | 0.0 | 0.0 | 0.00 | 5.94 | 0.00 | 90 | 1020.8 |
| 20260502115629 | 11 | 202 | 0.0 | 0.0 | 0.00 | 5.94 | 0.00 | 90 | 1020.8 |
| 20260502115443 | 11 | 303 | 0.0 | 1.6 | 0.00 | 5.94 | 0.00 | 90 | 1020.8 |
| 20260502115334 | 11 | 303 | 0.0 | 1.6 | 0.00 | 5.94 | 0.00 | 90 | 1020.8 |
| 20260502115226 | 11 | 303 | 0.0 | 1.6 | 0.00 | 5.94 | 0.00 | 90 | 1020.8 |
| 20260502115118 | 11 | 303 | 0.0 | 1.6 | 0.00 | 5.94 | 0.00 | 90 | 1020.8 |
| 20260502114953 | 11 | 303 | 0.0 | 1.6 | 0.00 | 5.94 | 0.00 | 90 | 1020.8 |
| 20260502114845 | 11 | 302 | 0.0 | 1.6 | 0.00 | 5.94 | 0.00 | 90 | 1020.8 |
| 20260502114736 | 11 | 302 | 0.0 | 1.6 | 0.00 | 5.94 | 0.00 | 90 | 1020.8 |
| 20260502114629 | 11 | 315 | 0.0 | 1.6 | 0.00 | 5.94 | 0.00 | 90 | 1020.8 |
| 20260502114328 | 11 | 338 | 0.0 | 1.6 | 0.00 | 5.94 | 0.00 | 90 | 1020.7 |
| 20260502114219 | 11 | 338 | 0.0 | 1.6 | 0.00 | 5.94 | 0.00 | 90 | 1020.7 |
| 20260502114049 | 11 | 338 | 0.0 | 1.6 | 0.00 | 5.94 | 0.00 | 90 | 1020.7 |
| 20260502113925 | 11 | 342 | 0.0 | 1.6 | 0.00 | 5.94 | 0.00 | 89 | 1020.7 |
| 20260502113756 | 11 | 343 | 0.0 | 1.6 | 0.00 | 5.94 | 0.00 | 90 | 1020.7 |
| 20260502113648 | 11 | 343 | 0.0 | 1.6 | 0.00 | 5.94 | 0.00 | 89 | 1020.7 |
| 20260502113539 | 11 | 332 | 0.0 | 1.6 | 0.00 | 5.94 | 0.00 | 89 | 1020.7 |
| 20260502113304 | 11 | 306 | 0.0 | 1.6 | 0.00 | 5.94 | 0.00 | 89 | 1020.7 |
| 20260502113156 | 11 | 306 | 0.0 | 1.6 | 0.00 | 5.94 | 0.00 | 89 | 1020.7 |
| 20260502113024 | 11 | 306 | 0.0 | 1.6 | 0.00 | 5.94 | 0.00 | 89 | 1020.7 |
| 20260502112914 | 11 | 306 | 0.0 | 1.6 | 0.00 | 5.94 | 0.00 | 89 | 1020.7 |
| 20260502112806 | 11 | 304 | 0.0 | 1.6 | 0.00 | 5.94 | 0.00 | 89 | 1020.5 |
| 20260502112659 | 11 | 304 | 0.0 | 1.6 | 0.00 | 5.94 | 0.00 | 89 | 1020.5 |
| 20260502103231 | 11 | 318 | 0.0 | 0.0 | 0.00 | 7.37 | 0.00 | 89 | 1020.1 |
| 20260502103141 | 11 | 318 | 0.0 | 0.0 | 0.00 | 7.37 | 0.00 | 88 | 1020.1 |
| 20260502103012 | 11 | 318 | 0.0 | 0.0 | 0.00 | 7.37 | 0.00 | 88 | 1020.1 |
| 20260502102905 | 11 | 318 | 0.0 | 0.0 | 0.00 | 7.37 | 0.00 | 88 | 1020.1 |
| 20260502102756 | 11 | 318 | 0.0 | 1.6 | 0.00 | 7.37 | 0.00 | 88 | 1020.0 |
| 20260502102624 | 11 | 318 | 0.0 | 1.6 | 0.00 | 7.37 | 0.00 | 88 | 1020.0 |
| 20260502102516 | 11 | 318 | 0.0 | 1.6 | 0.00 | 7.37 | 0.00 | 88 | 1020.0 |
| 20260502102409 | 11 | 318 | 0.0 | 1.6 | 0.00 | 7.37 | 0.00 | 88 | 1020.0 |
| 20260502102259 | 11 | 318 | 0.0 | 1.6 | 0.00 | 7.37 | 0.00 | 88 | 1020.0 |
| 20260502012500 | 14 | 323 | 1.6 | 12.9 | 0.36 | 14.48 | 13.03 | 92 | 1015.4 |
| 20260502012353 | 14 | 273 | 1.6 | 12.9 | 0.36 | 14.48 | 13.03 | 92 | 1015.4 |
| 20260502012245 | 14 | 355 | 1.6 | 12.9 | 0.33 | 14.45 | 13.00 | 92 | 1015.4 |
| 20260502012136 | 14 | 43 | 1.6 | 12.9 | 0.36 | 14.45 | 13.00 | 92 | 1015.4 |
| 20260502012027 | 14 | 288 | 0.0 | 12.9 | 0.36 | 14.45 | 13.00 | 92 | 1015.4 |
| 20260502011901 | 14 | 360 | 1.6 | 12.9 | 0.33 | 14.43 | 12.98 | 92 | 1015.4 |
| 20260502011731 | 14 | 291 | 0.0 | 6.4 | 0.30 | 14.40 | 12.95 | 92 | 1015.4 |
| 20260502011623 | 14 | 324 | 0.0 | 4.8 | 0.30 | 14.40 | 12.95 | 92 | 1015.4 |
| 20260502011454 | 14 | 343 | 0.0 | 4.8 | 0.28 | 14.38 | 12.93 | 92 | 1015.4 |
| 20260502011301 | 14 | 317 | 0.0 | 6.4 | 0.28 | 14.35 | 12.90 | 92 | 1015.6 |
| 20260502011154 | 14 | 333 | 0.0 | 6.4 | 0.28 | 14.35 | 12.90 | 92 | 1015.6 |
| 20260502011045 | 14 | 327 | 0.0 | 6.4 | 0.25 | 14.33 | 12.88 | 92 | 1015.6 |
| 20260502010938 | 15 | 316 | 0.0 | 6.4 | 0.25 | 14.33 | 12.88 | 92 | 1015.6 |
| 20260502010813 | 15 | 284 | 0.0 | 6.4 | 0.23 | 14.30 | 12.85 | 92 | 1015.6 |
| 20260502010706 | 15 | 316 | 0.0 | 6.4 | 0.23 | 14.30 | 12.85 | 92 | 1015.6 |
| 20260502010557 | 15 | 30 | 1.6 | 6.4 | 0.20 | 14.27 | 12.83 | 92 | 1015.6 |
| 20260502010450 | 15 | 290 | 0.0 | 6.4 | 0.20 | 14.27 | 12.83 | 92 | 1015.6 |
| 20260502010328 | 15 | 355 | 0.0 | 3.2 | 0.20 | 14.25 | 12.80 | 92 | 1015.6 |
| 20260502010142 | 15 | 326 | 0.0 | 3.2 | 0.18 | 14.22 | 12.78 | 92 | 1015.6 |
| 20260502010001 | 15 | 343 | 0.0 | 3.2 | 0.15 | 14.20 | 12.75 | 92 | 1015.6 |
| 20260502005837 | 15 | 69 | 0.0 | 3.2 | 0.18 | 14.20 | 12.75 | 92 | 1015.5 |
| 20260502005727 | 15 | 297 | 0.0 | 4.8 | 0.18 | 14.20 | 12.75 | 92 | 1015.5 |
| 20260502005601 | 15 | 341 | 0.0 | 4.8 | 0.20 | 14.20 | 12.75 | 92 | 1015.5 |
| 20260502005439 | 15 | 311 | 0.0 | 4.8 | 0.18 | 14.17 | 12.73 | 92 | 1015.5 |
| 20260502005314 | 15 | 304 | 0.0 | 4.8 | 0.20 | 14.17 | 12.73 | 92 | 1015.5 |
| 20260502005143 | 15 | 325 | 0.0 | 4.8 | 0.23 | 14.17 | 12.73 | 92 | 1015.5 |
| 20260502005036 | 15 | 292 | 0.0 | 4.8 | 0.23 | 14.17 | 12.73 | 92 | 1015.5 |
| 20260502004927 | 15 | 304 | 0.0 | 3.2 | 0.23 | 14.17 | 12.73 | 92 | 1015.5 |
| 20260502004743 | 15 | 259 | 0.0 | 4.8 | 0.25 | 14.17 | 12.73 | 92 | 1015.5 |
| 20260502004634 | 15 | 259 | 0.0 | 11.3 | 0.25 | 14.17 | 12.73 | 92 | 1015.5 |
| 20260502004505 | 15 | 333 | 0.0 | 11.3 | 0.28 | 14.17 | 12.73 | 92 | 1015.5 |
| 20260502004357 | 15 | 294 | 0.0 | 11.3 | 0.28 | 14.17 | 12.73 | 92 | 1014.1 |
| 20260502004224 | 15 | 304 | 0.0 | 11.3 | 0.30 | 14.17 | 12.73 | 92 | 1014.1 |
| 20260502004116 | 15 | 9 | 0.0 | 11.3 | 0.33 | 14.17 | 12.73 | 92 | 1014.1 |
| 20260502004007 | 15 | 44 | 1.6 | 11.3 | 0.30 | 14.15 | 12.70 | 92 | 1014.1 |
| 20260502003859 | 15 | 25 | 1.6 | 11.3 | 0.33 | 14.15 | 12.70 | 92 | 1014.1 |
| 20260502003736 | 15 | 327 | 0.0 | 11.3 | 0.36 | 14.15 | 12.70 | 92 | 1014.1 |
| 20260502003606 | 15 | 32 | 0.0 | 11.3 | 0.36 | 14.15 | 12.70 | 92 | 1014.1 |
| 20260502003459 | 15 | 24 | 0.0 | 11.3 | 0.41 | 14.15 | 12.70 | 92 | 1014.1 |
| 20260502003328 | 15 | 30 | 1.6 | 11.3 | 0.41 | 14.15 | 12.70 | 92 | 1014.1 |
| 20260502003158 | 15 | 44 | 0.0 | 11.3 | 0.43 | 14.15 | 12.70 | 92 | 1014.1 |
| 20260502003049 | 15 | 30 | 0.0 | 11.3 | 0.43 | 14.15 | 12.70 | 92 | 1014.1 |
| 20260502002942 | 15 | 309 | 1.6 | 11.3 | 0.43 | 14.15 | 12.70 | 92 | 1014.1 |
| 20260502002832 | 15 | 350 | 0.0 | 11.3 | 0.41 | 14.12 | 12.67 | 92 | 1015.0 |
| 20260502002707 | 15 | 319 | 0.0 | 6.4 | 0.41 | 14.12 | 12.67 | 92 | 1015.0 |
| 20260502002600 | 15 | 317 | 0.0 | 6.4 | 0.41 | 14.12 | 12.67 | 92 | 1015.0 |
| 20260502002428 | 15 | 5 | 0.0 | 6.4 | 0.41 | 14.12 | 12.67 | 92 | 1015.0 |
| 20260502002319 | 15 | 309 | 0.0 | 6.4 | 0.41 | 14.12 | 12.67 | 92 | 1015.0 |
| 20260502002125 | 15 | 344 | 0.0 | 6.4 | 0.38 | 14.10 | 12.65 | 92 | 1015.0 |
| 20260502001955 | 15 | 344 | 0.0 | 6.4 | 0.38 | 14.10 | 12.65 | 92 | 1015.0 |
| 20260502001847 | 15 | 32 | 0.0 | 6.4 | 0.38 | 14.10 | 12.65 | 92 | 1015.0 |
| 20260502001739 | 15 | 339 | 0.0 | 4.8 | 0.38 | 14.10 | 12.65 | 92 | 1015.0 |
| 20260502001614 | 15 | 360 | 0.0 | 4.8 | 0.41 | 14.10 | 12.65 | 92 | 1015.0 |
| 20260502001507 | 15 | 17 | 0.0 | 4.8 | 0.41 | 14.10 | 12.65 | 92 | 1015.0 |
| 20260502001359 | 15 | 355 | 0.0 | 0.0 | 0.38 | 14.07 | 12.62 | 92 | 1014.7 |
| 20260502001230 | 15 | 5 | 0.0 | 0.0 | 0.38 | 14.07 | 12.62 | 92 | 1014.7 |
| 20260502001044 | 15 | 325 | 0.0 | 0.0 | 0.38 | 14.07 | 12.62 | 92 | 1014.7 |
| 20260502000937 | 15 | 323 | 0.0 | 1.6 | 0.38 | 14.07 | 12.62 | 92 | 1014.7 |
| 20260502000829 | 15 | 319 | 0.0 | 1.6 | 0.41 | 14.07 | 12.62 | 92 | 1014.7 |
| 20260502000721 | 15 | 334 | 0.0 | 1.6 | 0.41 | 14.07 | 12.62 | 92 | 1014.7 |
| 20260502000525 | 15 | 19 | 0.0 | 1.6 | 0.43 | 14.07 | 12.62 | 92 | 1014.7 |
| 20260502000417 | 15 | 305 | 0.0 | 1.6 | 0.43 | 14.05 | 12.60 | 92 | 1014.7 |
| 20260502000310 | 15 | 309 | 0.0 | 1.6 | 0.46 | 14.05 | 12.60 | 92 | 1014.7 |
| 20260502000151 | 15 | 309 | 0.0 | 1.6 | 0.51 | 14.05 | 12.60 | 92 | 1014.7 |
| 20260502000017 | 15 | 309 | 0.0 | 1.6 | 0.56 | 14.05 | 12.60 | 92 | 1014.7 |
| 20260501235908 | 15 | 10 | 0.0 | 1.6 | 0.56 | 14.02 | 12.57 | 92 | 1014.7 |
| 20260501235800 | 15 | 10 | 0.0 | 1.6 | 0.69 | 14.02 | 12.57 | 92 | 1015.0 |
| 20260501235644 | 15 | 321 | 0.0 | 1.6 | 0.71 | 14.00 | 12.55 | 92 | 1015.0 |
| 20260501235458 | 15 | 360 | 0.0 | 1.6 | 0.76 | 14.00 | 12.55 | 92 | 1015.0 |
| 20260501235351 | 15 | 355 | 0.0 | 3.2 | 0.74 | 13.97 | 12.52 | 92 | 1015.0 |
| 20260501235243 | 15 | 331 | 0.0 | 3.2 | 0.74 | 13.97 | 12.52 | 92 | 1015.0 |
| 20260501235135 | 15 | 331 | 0.0 | 3.2 | 0.71 | 13.94 | 12.50 | 92 | 1015.0 |
| 20260501235010 | 15 | 329 | 0.0 | 3.2 | 0.71 | 13.94 | 12.50 | 92 | 1015.0 |
| 20260501234902 | 15 | 329 | 0.0 | 9.7 | 0.71 | 13.94 | 12.50 | 92 | 1015.0 |
| 20260501234755 | 15 | 323 | 0.0 | 9.7 | 0.69 | 13.92 | 12.47 | 92 | 1015.0 |
| 20260501234626 | 15 | 296 | 0.0 | 9.7 | 0.66 | 13.89 | 12.45 | 92 | 1015.0 |
| 20260501234434 | 15 | 343 | 0.0 | 12.9 | 0.66 | 13.89 | 12.45 | 92 | 1015.0 |
| 20260501234325 | 15 | 343 | 0.0 | 12.9 | 0.64 | 13.87 | 12.42 | 92 | 1014.5 |
| 20260501234218 | 15 | 343 | 1.6 | 12.9 | 0.64 | 13.87 | 12.42 | 92 | 1014.5 |
| 20260501234109 | 15 | 12 | 1.6 | 12.9 | 0.61 | 13.84 | 12.40 | 92 | 1014.5 |
| 20260501233946 | 15 | 342 | 0.0 | 12.9 | 0.58 | 13.82 | 12.37 | 92 | 1014.5 |
| 20260501233838 | 15 | 325 | 0.0 | 12.9 | 0.56 | 13.79 | 12.34 | 92 | 1014.5 |
| 20260501233730 | 15 | 340 | 1.6 | 12.9 | 0.56 | 13.79 | 12.34 | 92 | 1014.5 |
| 20260501233622 | 15 | 325 | 1.6 | 12.9 | 0.53 | 13.77 | 12.32 | 92 | 1014.5 |
| 20260501233437 | 15 | 44 | 1.6 | 12.9 | 0.51 | 13.74 | 12.29 | 92 | 1014.5 |
| 20260501233330 | 15 | 19 | 0.0 | 12.9 | 0.48 | 13.72 | 12.27 | 92 | 1014.5 |
| 20260501233212 | 15 | 22 | 0.0 | 12.9 | 0.48 | 13.72 | 12.27 | 92 | 1014.5 |
| 20260501233102 | 15 | 24 | 0.0 | 12.9 | 0.48 | 13.72 | 12.27 | 92 | 1014.5 |
| 20260501232913 | 15 | 360 | 1.6 | 12.9 | 0.48 | 13.72 | 12.27 | 92 | 1014.5 |
| 20260501232803 | 15 | 329 | 0.0 | 11.3 | 0.48 | 13.72 | 12.27 | 92 | 1013.2 |
| 20260501232655 | 15 | 52 | 0.0 | 12.9 | 0.48 | 13.72 | 12.27 | 92 | 1013.2 |
| 20260501232546 | 15 | 333 | 1.6 | 12.9 | 0.48 | 13.72 | 12.27 | 92 | 1013.2 |
| 20260501232422 | 15 | 338 | 1.6 | 12.9 | 0.48 | 13.72 | 12.27 | 92 | 1013.2 |
| 20260501232306 | 15 | 37 | 0.0 | 12.9 | 0.48 | 13.72 | 12.27 | 92 | 1013.2 |
| 20260501232136 | 15 | 18 | 0.0 | 12.9 | 0.48 | 13.72 | 12.27 | 92 | 1013.2 |
| 20260501232027 | 15 | 5 | 1.6 | 12.9 | 0.48 | 13.72 | 12.27 | 92 | 1013.2 |
| 20260501231904 | 15 | 9 | 1.6 | 12.9 | 0.48 | 13.72 | 12.27 | 92 | 1013.2 |
| 20260501231735 | 15 | 92 | 1.6 | 9.7 | 0.46 | 13.69 | 12.24 | 92 | 1013.2 |
| 20260501231627 | 15 | 24 | 0.0 | 4.8 | 0.46 | 13.69 | 12.24 | 92 | 1013.2 |
| 20260501231519 | 15 | 340 | 0.0 | 4.8 | 0.46 | 13.69 | 12.24 | 92 | 1013.2 |
| 20260501231355 | 15 | 13 | 0.0 | 4.8 | 0.46 | 13.69 | 12.24 | 92 | 1013.5 |
| 20260501231238 | 15 | 27 | 0.0 | 4.8 | 0.46 | 13.69 | 12.24 | 92 | 1013.5 |
| 20260501231131 | 15 | 28 | 0.0 | 4.8 | 0.46 | 13.69 | 12.24 | 92 | 1013.5 |
| 20260501231002 | 15 | 19 | 0.0 | 4.8 | 0.46 | 13.69 | 12.24 | 92 | 1013.5 |
| 20260501230831 | 15 | 13 | 0.0 | 4.8 | 0.43 | 13.67 | 12.22 | 92 | 1013.5 |
| 20260501230723 | 15 | 14 | 0.0 | 4.8 | 0.41 | 13.64 | 12.22 | 92 | 1013.5 |
| 20260501230614 | 15 | 15 | 0.0 | 9.7 | 0.41 | 13.64 | 12.19 | 92 | 1013.5 |
| 20260501230505 | 15 | 105 | 0.0 | 9.7 | 0.38 | 13.61 | 12.17 | 92 | 1013.5 |
| 20260501230357 | 15 | 5 | 0.0 | 9.7 | 0.36 | 13.59 | 12.14 | 92 | 1013.5 |
| 20260501230246 | 15 | 40 | 0.0 | 9.7 | 0.33 | 13.56 | 12.12 | 92 | 1013.5 |
| 20260501230130 | 15 | 21 | 0.0 | 9.7 | 0.28 | 13.51 | 12.06 | 92 | 1013.5 |
| 20260501230009 | 15 | 27 | 1.6 | 9.7 | 0.23 | 13.46 | 12.01 | 92 | 1013.5 |
| 20260501225837 | 15 | 5 | 1.6 | 9.7 | 0.13 | 13.36 | 11.91 | 92 | 1013.3 |
| 20260501225728 | 15 | 20 | 0.0 | 4.8 | 0.05 | 13.28 | 11.86 | 92 | 1013.3 |
| 20260501225621 | 15 | 29 | 0.0 | 3.2 | 0.03 | 13.26 | 11.81 | 92 | 1013.3 |
| 20260501225513 | 15 | 15 | 0.0 | 3.2 | 0.00 | 13.23 | 11.79 | 92 | 1013.3 |
| 20260501225347 | 15 | 338 | 0.0 | 0.0 | 0.00 | 13.23 | 11.79 | 92 | 1013.3 |
| 20260501225218 | 15 | 329 | 0.0 | 0.0 | 0.00 | 13.23 | 11.79 | 92 | 1013.3 |
| 20260501225110 | 15 | 326 | 0.0 | 6.4 | 0.00 | 13.23 | 11.79 | 92 | 1013.3 |
| 20260501225002 | 15 | 321 | 0.0 | 14.5 | 0.00 | 13.23 | 11.79 | 92 | 1013.3 |
| 20260501224831 | 15 | 321 | 0.0 | 14.5 | 0.00 | 13.23 | 11.79 | 92 | 1013.3 |
| 20260501224722 | 15 | 5 | 0.0 | 14.5 | 0.00 | 13.23 | 11.79 | 92 | 1013.3 |
| 20260501224614 | 15 | 5 | 0.0 | 14.5 | 0.00 | 13.23 | 11.79 | 92 | 1013.3 |
| 20260501224505 | 15 | 350 | 0.0 | 14.5 | 0.00 | 13.23 | 11.79 | 92 | 1013.3 |
| 20260501224341 | 15 | 360 | 1.6 | 14.5 | 0.03 | 13.23 | 11.79 | 92 | 1012.5 |
| 20260501224232 | 15 | 24 | 3.2 | 14.5 | 0.03 | 13.23 | 11.79 | 92 | 1012.5 |
| 20260501224124 | 15 | 36 | 1.6 | 14.5 | 0.03 | 13.23 | 11.79 | 92 | 1012.5 |
| 20260501223955 | 15 | 42 | 0.0 | 9.7 | 0.03 | 13.23 | 11.79 | 92 | 1012.5 |
| 20260501223810 | 15 | 33 | 0.0 | 16.1 | 0.03 | 13.23 | 11.79 | 92 | 1012.5 |
| 20260501223658 | 15 | 19 | 1.6 | 16.1 | 0.05 | 13.23 | 11.79 | 92 | 1012.5 |
| 20260501223548 | 15 | 12 | 1.6 | 16.1 | 0.05 | 13.23 | 11.79 | 92 | 1012.5 |
| 20260501223411 | 15 | 5 | 0.0 | 16.1 | 0.05 | 13.23 | 11.79 | 92 | 1012.5 |
| 20260501223247 | 15 | 355 | 1.6 | 16.1 | 0.05 | 13.23 | 11.79 | 92 | 1012.5 |
| 20260501223134 | 15 | 55 | 1.6 | 16.1 | 0.05 | 13.23 | 11.79 | 92 | 1012.5 |
| 20260501223025 | 15 | 25 | 1.6 | 16.1 | 0.05 | 13.23 | 11.79 | 92 | 1012.5 |
| 20260501222918 | 15 | 37 | 0.0 | 11.3 | 0.05 | 13.23 | 11.79 | 92 | 1012.5 |
| 20260501222753 | 15 | 348 | 1.6 | 11.3 | 0.05 | 13.23 | 11.79 | 92 | 1012.2 |
| 20260501222644 | 15 | 13 | 1.6 | 16.1 | 0.08 | 13.23 | 11.79 | 92 | 1012.2 |
| 20260501222536 | 15 | 5 | 0.0 | 16.1 | 0.08 | 13.23 | 11.79 | 92 | 1012.2 |
| 20260501222429 | 15 | 348 | 0.0 | 16.1 | 0.08 | 13.23 | 11.79 | 92 | 1012.2 |
| 20260501222257 | 15 | 13 | 0.0 | 16.1 | 0.10 | 13.23 | 11.79 | 92 | 1012.2 |
| 20260501222128 | 16 | 115 | 0.0 | 16.1 | 0.13 | 13.23 | 11.79 | 92 | 1012.2 |
| 20260501222019 | 16 | 348 | 3.2 | 16.1 | 0.15 | 13.23 | 11.79 | 92 | 1012.2 |
| 20260501221911 | 16 | 11 | 3.2 | 16.1 | 0.18 | 13.23 | 11.79 | 92 | 1012.2 |
| 20260501221747 | 16 | 329 | 1.6 | 12.9 | 0.20 | 13.23 | 11.79 | 92 | 1012.2 |
| 20260501221639 | 16 | 342 | 3.2 | 12.9 | 0.20 | 13.23 | 11.79 | 92 | 1012.2 |
| 20260501221531 | 16 | 348 | 1.6 | 12.9 | 0.20 | 13.23 | 11.79 | 92 | 1012.2 |
| 20260501221402 | 16 | 16 | 1.6 | 12.9 | 0.20 | 13.23 | 11.79 | 92 | 1012.9 |
| 20260501221231 | 16 | 351 | 1.6 | 12.9 | 0.20 | 13.23 | 11.79 | 92 | 1012.9 |
| 20260501221103 | 16 | 360 | 1.6 | 12.9 | 0.20 | 13.23 | 11.79 | 92 | 1012.9 |
| 20260501220953 | 16 | 31 | 1.6 | 12.9 | 0.20 | 13.23 | 11.79 | 92 | 1012.9 |
| 20260501220843 | 16 | 5 | 1.6 | 12.9 | 0.20 | 13.23 | 11.79 | 92 | 1012.9 |
| 20260501220716 | 16 | 55 | 1.6 | 14.5 | 0.20 | 13.23 | 11.79 | 92 | 1012.9 |
| 20260501220609 | 16 | 5 | 0.0 | 14.5 | 0.20 | 13.23 | 11.79 | 92 | 1012.9 |
| 20260501220458 | 16 | 41 | 0.0 | 14.5 | 0.20 | 13.23 | 11.79 | 92 | 1012.9 |
| 20260501220349 | 16 | 20 | 0.0 | 14.5 | 0.20 | 13.23 | 11.79 | 92 | 1012.9 |
| 20260501220204 | 16 | 309 | 1.6 | 14.5 | 0.20 | 13.23 | 11.79 | 92 | 1012.9 |
| 20260501220040 | 16 | 28 | 1.6 | 14.5 | 0.20 | 13.23 | 11.79 | 92 | 1012.9 |
| 20260501215921 | 16 | 34 | 1.6 | 14.5 | 0.23 | 13.23 | 11.79 | 92 | 1012.9 |
| 20260501215756 | 16 | 5 | 1.6 | 11.3 | 0.23 | 13.23 | 11.79 | 92 | 1013.5 |
| 20260501215648 | 16 | 355 | 1.6 | 11.3 | 0.23 | 13.23 | 11.79 | 92 | 1013.5 |
| 20260501215540 | 16 | 22 | 1.6 | 11.3 | 0.23 | 13.23 | 11.79 | 92 | 1013.5 |
| 20260501215432 | 16 | 327 | 1.6 | 11.3 | 0.23 | 13.23 | 11.79 | 92 | 1013.5 |
| 20260501215307 | 16 | 346 | 0.0 | 11.3 | 0.23 | 13.23 | 11.79 | 92 | 1013.5 |
| 20260501215159 | 16 | 267 | 1.6 | 11.3 | 0.25 | 13.23 | 11.79 | 92 | 1013.5 |
| 20260501215043 | 16 | 54 | 0.0 | 8.0 | 0.25 | 13.23 | 11.79 | 92 | 1013.5 |
| 20260501214935 | 16 | 9 | 0.0 | 8.0 | 0.25 | 13.23 | 11.79 | 92 | 1013.5 |
| 20260501214810 | 16 | 48 | 0.0 | 8.0 | 0.25 | 13.23 | 11.79 | 92 | 1013.5 |
| 20260501214701 | 16 | 348 | 0.0 | 8.0 | 0.25 | 13.23 | 11.79 | 92 | 1013.5 |
| 20260501214553 | 16 | 19 | 1.6 | 6.4 | 0.23 | 13.21 | 11.76 | 92 | 1013.5 |
| 20260501214424 | 16 | 43 | 0.0 | 6.4 | 0.25 | 13.21 | 11.76 | 92 | 1013.5 |
| 20260501214301 | 16 | 325 | 0.0 | 6.4 | 0.25 | 13.21 | 11.76 | 92 | 1014.0 |
| 20260501214151 | 16 | 355 | 0.0 | 8.0 | 0.25 | 13.21 | 11.76 | 92 | 1014.0 |
| 20260501214043 | 16 | 13 | 0.0 | 8.0 | 0.25 | 13.21 | 11.76 | 92 | 1014.0 |
| 20260501213936 | 16 | 315 | 0.0 | 8.0 | 0.25 | 13.21 | 11.76 | 92 | 1014.0 |
| 20260501213803 | 16 | 315 | 0.0 | 8.0 | 0.25 | 13.18 | 11.73 | 92 | 1014.0 |
| 20260501213653 | 16 | 40 | 0.0 | 8.0 | 0.25 | 13.18 | 11.73 | 92 | 1014.0 |
| 20260501213545 | 16 | 302 | 0.0 | 8.0 | 0.25 | 13.18 | 11.73 | 92 | 1014.0 |
| 20260501213436 | 16 | 5 | 1.6 | 8.0 | 0.28 | 13.18 | 11.73 | 92 | 1014.0 |
| 20260501213310 | 16 | 31 | 1.6 | 8.0 | 0.28 | 13.18 | 11.73 | 92 | 1014.0 |
| 20260501213201 | 16 | 22 | 0.0 | 3.2 | 0.30 | 13.18 | 11.73 | 92 | 1014.0 |
| 20260501213053 | 16 | 15 | 0.0 | 3.2 | 0.30 | 13.18 | 11.73 | 92 | 1014.0 |
| 20260501212945 | 16 | 342 | 0.0 | 3.2 | 0.30 | 13.18 | 11.73 | 92 | 1014.0 |
| 20260501212753 | 16 | 318 | 0.0 | 4.8 | 0.30 | 13.18 | 11.73 | 92 | 1013.4 |
| 20260501212645 | 16 | 304 | 0.0 | 4.8 | 0.28 | 13.16 | 11.71 | 92 | 1013.4 |
| 20260501212536 | 16 | 289 | 0.0 | 6.4 | 0.28 | 13.16 | 11.71 | 92 | 1013.4 |
| 20260501212429 | 16 | 298 | 0.0 | 6.4 | 0.30 | 13.16 | 11.71 | 92 | 1013.4 |
| 20260501212306 | 16 | 5 | 0.0 | 6.4 | 0.28 | 13.13 | 11.68 | 92 | 1013.4 |
| 20260501212135 | 16 | 355 | 0.0 | 6.4 | 0.25 | 13.11 | 11.66 | 92 | 1013.4 |
| 20260501212026 | 16 | 65 | 0.0 | 6.4 | 0.25 | 13.08 | 11.63 | 92 | 1013.4 |
| 20260501211919 | 16 | 340 | 0.0 | 6.4 | 0.20 | 13.03 | 11.58 | 92 | 1013.4 |
| 20260501211748 | 16 | 342 | 0.0 | 4.8 | 0.20 | 13.03 | 11.58 | 92 | 1013.4 |
| 20260501211640 | 16 | 308 | 0.0 | 4.8 | 0.23 | 13.03 | 11.58 | 92 | 1013.4 |
| 20260501211532 | 16 | 15 | 0.0 | 4.8 | 0.23 | 13.03 | 11.58 | 92 | 1013.4 |
| 20260501211424 | 16 | 318 | 0.0 | 1.6 | 0.25 | 13.03 | 11.58 | 92 | 1013.4 |
| 20260501211258 | 16 | 313 | 0.0 | 1.6 | 0.33 | 13.03 | 11.58 | 92 | 1012.2 |
| 20260501211150 | 16 | 313 | 0.0 | 1.6 | 0.36 | 13.03 | 11.58 | 93 | 1012.2 |
| 20260501211042 | 16 | 325 | 0.0 | 1.6 | 0.36 | 13.03 | 11.58 | 93 | 1012.2 |
| 20260501210933 | 16 | 348 | 0.0 | 1.6 | 0.36 | 13.03 | 11.58 | 93 | 1012.2 |
| 20260501210800 | 16 | 348 | 0.0 | 3.2 | 0.36 | 13.03 | 11.58 | 93 | 1012.2 |
| 20260501210630 | 16 | 346 | 0.0 | 4.8 | 0.36 | 13.03 | 11.58 | 93 | 1012.2 |
| 20260501210522 | 16 | 336 | 0.0 | 4.8 | 0.38 | 13.03 | 11.58 | 93 | 1012.2 |
| 20260501210414 | 16 | 348 | 0.0 | 6.4 | 0.41 | 13.03 | 11.58 | 93 | 1012.2 |
| 20260501210244 | 16 | 334 | 0.0 | 6.4 | 0.41 | 13.03 | 11.58 | 92 | 1012.2 |
| 20260501210130 | 16 | 355 | 0.0 | 6.4 | 0.43 | 13.03 | 11.58 | 92 | 1012.2 |
| 20260501210010 | 16 | 15 | 0.0 | 6.4 | 0.46 | 13.00 | 11.56 | 93 | 1012.2 |
| 20260501205841 | 16 | 355 | 0.0 | 6.4 | 0.46 | 13.00 | 11.56 | 93 | 1012.5 |
| 20260501205716 | 16 | 12 | 0.0 | 6.4 | 0.48 | 13.00 | 11.56 | 93 | 1012.5 |
| 20260501205609 | 16 | 347 | 0.0 | 6.4 | 0.48 | 13.00 | 11.56 | 93 | 1012.5 |
| 20260501205501 | 16 | 34 | 0.0 | 6.4 | 0.51 | 13.00 | 11.56 | 93 | 1012.5 |
| 20260501205353 | 16 | 5 | 0.0 | 6.4 | 0.51 | 13.00 | 11.56 | 92 | 1012.5 |
| 20260501205222 | 16 | 23 | 0.0 | 6.4 | 0.48 | 12.98 | 11.53 | 92 | 1012.5 |
| 20260501205114 | 16 | 11 | 0.0 | 4.8 | 0.51 | 12.98 | 11.53 | 92 | 1012.5 |
| 20260501204945 | 16 | 346 | 0.0 | 4.8 | 0.53 | 12.98 | 11.53 | 92 | 1012.5 |
| 20260501204835 | 16 | 349 | 0.0 | 6.4 | 0.56 | 12.98 | 11.53 | 92 | 1012.5 |
| 20260501204711 | 16 | 5 | 0.0 | 6.4 | 0.56 | 12.98 | 11.53 | 92 | 1012.5 |
| 20260501204600 | 16 | 328 | 0.0 | 6.4 | 0.56 | 12.98 | 11.53 | 92 | 1012.5 |
| 20260501204430 | 16 | 348 | 0.0 | 6.4 | 0.53 | 12.95 | 11.51 | 92 | 1012.5 |
| 20260501204322 | 16 | 40 | 0.0 | 6.4 | 0.53 | 12.95 | 11.51 | 92 | 1013.1 |
| 20260501204150 | 16 | 21 | 0.0 | 6.4 | 0.53 | 12.95 | 11.51 | 92 | 1013.1 |
| 20260501204040 | 16 | 321 | 0.0 | 11.3 | 0.53 | 12.95 | 11.51 | 92 | 1013.1 |
| 20260501203932 | 16 | 313 | 0.0 | 11.3 | 0.53 | 12.95 | 11.51 | 92 | 1013.1 |
| 20260501203823 | 16 | 33 | 0.0 | 11.3 | 0.51 | 12.93 | 11.48 | 92 | 1013.1 |
| 20260501203700 | 16 | 313 | 0.0 | 11.3 | 0.51 | 12.93 | 11.48 | 92 | 1013.1 |
| 20260501203551 | 16 | 355 | 0.0 | 11.3 | 0.51 | 12.93 | 11.48 | 92 | 1013.1 |
| 20260501203444 | 16 | 43 | 0.0 | 11.3 | 0.48 | 12.90 | 11.46 | 92 | 1013.1 |
| 20260501203336 | 16 | 5 | 1.6 | 11.3 | 0.48 | 12.90 | 11.46 | 92 | 1013.1 |
| 20260501203212 | 16 | 12 | 0.0 | 4.8 | 0.46 | 12.88 | 11.43 | 92 | 1013.1 |
| 20260501203104 | 16 | 329 | 0.0 | 1.6 | 0.46 | 12.88 | 11.43 | 92 | 1013.1 |
| 20260501202948 | 16 | 288 | 0.0 | 4.8 | 0.46 | 12.88 | 11.43 | 92 | 1013.1 |
| 20260501202818 | 16 | 314 | 0.0 | 4.8 | 0.46 | 12.88 | 11.43 | 92 | 1011.9 |
| 20260501202653 | 16 | 324 | 0.0 | 4.8 | 0.46 | 12.88 | 11.43 | 92 | 1011.9 |
| 20260501202544 | 16 | 16 | 0.0 | 4.8 | 0.43 | 12.85 | 11.40 | 92 | 1011.9 |
| 20260501202437 | 16 | 300 | 0.0 | 4.8 | 0.43 | 12.85 | 11.40 | 92 | 1011.9 |
| 20260501202329 | 16 | 27 | 0.0 | 12.9 | 0.43 | 12.85 | 11.40 | 92 | 1011.9 |
| 20260501202144 | 16 | 22 | 0.0 | 12.9 | 0.43 | 12.85 | 11.40 | 92 | 1011.9 |
| 20260501202035 | 16 | 30 | 0.0 | 12.9 | 0.41 | 12.83 | 11.38 | 92 | 1011.9 |
| 20260501201925 | 16 | 22 | 0.0 | 12.9 | 0.41 | 12.83 | 11.38 | 92 | 1011.9 |
| 20260501201754 | 16 | 5 | 0.0 | 12.9 | 0.41 | 12.83 | 11.38 | 92 | 1011.9 |
| 20260501201621 | 16 | 26 | 1.6 | 12.9 | 0.41 | 12.80 | 11.35 | 92 | 1011.9 |
| 20260501201512 | 16 | 34 | 1.6 | 9.7 | 0.38 | 12.78 | 11.33 | 92 | 1011.9 |
| 20260501201403 | 16 | 62 | 0.0 | 9.7 | 0.33 | 12.73 | 11.28 | 92 | 1011.7 |
| 20260501201234 | 16 | 274 | 0.0 | 9.7 | 0.30 | 12.70 | 11.25 | 92 | 1011.7 |
| 20260501201110 | 16 | 18 | 0.0 | 9.7 | 0.28 | 12.67 | 11.23 | 92 | 1011.7 |
| 20260501201003 | 16 | 318 | 0.0 | 9.7 | 0.28 | 12.67 | 11.23 | 92 | 1011.7 |
| 20260501200854 | 16 | 71 | 0.0 | 9.7 | 0.30 | 12.67 | 11.23 | 92 | 1011.7 |
| 20260501200747 | 17 | 30 | 0.0 | 6.4 | 0.30 | 12.67 | 11.23 | 92 | 1011.7 |
| 20260501200533 | 17 | 5 | 0.0 | 6.4 | 0.28 | 12.65 | 11.20 | 92 | 1011.7 |
| 20260501200425 | 17 | 29 | 0.0 | 6.4 | 0.28 | 12.65 | 11.20 | 92 | 1011.7 |
| 20260501200316 | 17 | 13 | 0.0 | 6.4 | 0.25 | 12.62 | 11.18 | 92 | 1011.7 |
| 20260501200209 | 17 | 297 | 0.0 | 6.4 | 0.23 | 12.60 | 11.15 | 92 | 1011.7 |
| 20260501200056 | 17 | 14 | 0.0 | 6.4 | 0.20 | 12.57 | 11.13 | 92 | 1011.7 |
| 20260501195936 | 17 | 316 | 0.0 | 3.2 | 0.18 | 12.55 | 11.10 | 92 | 1011.7 |
| 20260501195829 | 17 | 27 | 0.0 | 1.6 | 0.18 | 12.52 | 11.07 | 92 | 1012.1 |
| 20260501195720 | 17 | 331 | 0.0 | 1.6 | 0.18 | 12.52 | 11.07 | 93 | 1012.1 |
| 20260501195556 | 17 | 325 | 0.0 | 1.6 | 0.20 | 12.52 | 11.07 | 93 | 1012.1 |
| 20260501195446 | 17 | 329 | 0.0 | 1.6 | 0.18 | 12.50 | 11.05 | 93 | 1012.1 |
| 20260501195337 | 17 | 329 | 0.0 | 1.6 | 0.18 | 12.50 | 11.05 | 93 | 1012.1 |
| 20260501195219 | 17 | 342 | 0.0 | 1.6 | 0.18 | 12.47 | 11.02 | 93 | 1012.1 |
| 20260501195034 | 17 | 299 | 0.0 | 1.6 | 0.15 | 12.45 | 11.00 | 93 | 1012.1 |
| 20260501194925 | 17 | 331 | 0.0 | 0.0 | 0.13 | 12.42 | 10.97 | 93 | 1012.1 |
| 20260501194756 | 17 | 306 | 0.0 | 0.0 | 0.15 | 12.42 | 10.97 | 93 | 1012.1 |
| 20260501194644 | 17 | 306 | 0.0 | 4.8 | 0.15 | 12.42 | 10.97 | 93 | 1012.1 |
| 20260501194458 | 17 | 319 | 0.0 | 4.8 | 0.15 | 12.42 | 10.97 | 93 | 1012.1 |
| 20260501194350 | 17 | 295 | 0.0 | 4.8 | 0.15 | 12.42 | 10.97 | 93 | 1011.9 |
| 20260501194242 | 17 | 13 | 0.0 | 4.8 | 0.18 | 12.42 | 10.97 | 93 | 1011.9 |
| 20260501194135 | 17 | 13 | 0.0 | 4.8 | 0.18 | 12.42 | 10.97 | 93 | 1011.9 |
| 20260501194004 | 17 | 15 | 0.0 | 4.8 | 0.20 | 12.42 | 10.97 | 93 | 1011.9 |
| 20260501193855 | 17 | 5 | 0.0 | 4.8 | 0.20 | 12.42 | 10.97 | 93 | 1011.9 |
| 20260501193748 | 17 | 51 | 0.0 | 4.8 | 0.23 | 12.42 | 10.97 | 93 | 1011.9 |
| 20260501193618 | 17 | 45 | 0.0 | 4.8 | 0.25 | 12.42 | 10.97 | 93 | 1011.9 |
| 20260501193455 | 17 | 25 | 0.0 | 4.8 | 0.28 | 12.42 | 10.97 | 93 | 1011.9 |
| 20260501193345 | 17 | 46 | 0.0 | 4.8 | 0.30 | 12.42 | 10.97 | 93 | 1011.9 |
| 20260501193237 | 17 | 5 | 0.0 | 4.8 | 0.30 | 12.42 | 10.97 | 92 | 1011.9 |
| 20260501193129 | 17 | 30 | 0.0 | 3.2 | 0.33 | 12.42 | 10.97 | 93 | 1011.9 |
| 20260501192957 | 17 | 43 | 0.0 | 3.2 | 0.38 | 12.42 | 10.97 | 93 | 1011.9 |
| 20260501192850 | 17 | 23 | 0.0 | 3.2 | 0.41 | 12.42 | 10.97 | 93 | 1011.9 |
| 20260501192741 | 17 | 24 | 0.0 | 3.2 | 0.41 | 12.42 | 10.97 | 93 | 1011.9 |
| 20260501192634 | 17 | 46 | 0.0 | 3.2 | 0.41 | 12.42 | 10.97 | 93 | 1011.9 |
| 20260501192509 | 17 | 26 | 0.0 | 3.2 | 0.43 | 12.42 | 10.97 | 93 | 1011.9 |
| 20260501192340 | 17 | 44 | 0.0 | 9.7 | 0.43 | 12.42 | 10.97 | 93 | 1011.9 |
| 20260501192229 | 17 | 44 | 0.0 | 9.7 | 0.43 | 12.42 | 10.97 | 93 | 1011.9 |
| 20260501192121 | 17 | 44 | 0.0 | 9.7 | 0.46 | 12.42 | 10.97 | 93 | 1011.9 |
| 20260501192013 | 17 | 16 | 0.0 | 9.7 | 0.46 | 12.42 | 10.97 | 93 | 1011.9 |
| 20260501191852 | 17 | 30 | 0.0 | 9.7 | 0.46 | 12.42 | 10.97 | 93 | 1011.9 |
| 20260501191714 | 17 | 36 | 0.0 | 9.7 | 0.43 | 12.40 | 10.95 | 93 | 1011.9 |
| 20260501191546 | 17 | 24 | 0.0 | 9.7 | 0.43 | 12.40 | 10.95 | 93 | 1011.9 |
| 20260501191420 | 17 | 41 | 0.0 | 6.4 | 0.43 | 12.40 | 10.95 | 93 | 1011.9 |
| 20260501191313 | 17 | 9 | 0.0 | 6.4 | 0.43 | 12.40 | 10.95 | 93 | 1012.5 |
| 20260501191204 | 17 | 14 | 0.0 | 6.4 | 0.46 | 12.40 | 10.95 | 93 | 1012.5 |
| 20260501191056 | 17 | 35 | 0.0 | 3.2 | 0.46 | 12.40 | 10.95 | 93 | 1012.5 |
| 20260501190931 | 17 | 24 | 0.0 | 3.2 | 0.46 | 12.40 | 10.95 | 93 | 1012.5 |
| 20260501190824 | 17 | 29 | 0.0 | 0.0 | 0.43 | 12.37 | 10.92 | 93 | 1012.5 |
| 20260501190715 | 17 | 21 | 0.0 | 0.0 | 0.43 | 12.37 | 10.92 | 93 | 1012.5 |
| 20260501190547 | 17 | 360 | 0.0 | 0.0 | 0.46 | 12.37 | 10.92 | 93 | 1012.5 |
| 20260501190416 | 17 | 44 | 0.0 | 0.0 | 0.46 | 12.37 | 10.92 | 93 | 1012.5 |
| 20260501190308 | 17 | 44 | 0.0 | 0.0 | 0.46 | 12.37 | 10.92 | 93 | 1012.5 |
| 20260501190200 | 17 | 348 | 0.0 | 0.0 | 0.46 | 12.37 | 10.92 | 93 | 1012.5 |
| 20260501190041 | 17 | 348 | 0.0 | 0.0 | 0.46 | 12.37 | 10.92 | 93 | 1012.5 |
| 20260501185904 | 17 | 348 | 0.0 | 0.0 | 0.46 | 12.34 | 10.90 | 93 | 1012.5 |
| 20260501185732 | 17 | 69 | 0.0 | 0.0 | 0.46 | 12.34 | 10.90 | 93 | 1012.2 |
| 20260501185624 | 17 | 84 | 0.0 | 0.0 | 0.43 | 12.32 | 10.87 | 93 | 1012.2 |
| 20260501185507 | 17 | 24 | 0.0 | 0.0 | 0.46 | 12.32 | 10.87 | 93 | 1012.2 |
| 20260501185323 | 17 | 24 | 0.0 | 0.0 | 0.46 | 12.32 | 10.87 | 93 | 1012.2 |
| 20260501185154 | 16 | 10 | 0.0 | 0.0 | 0.43 | 12.29 | 10.85 | 93 | 1012.2 |
| 20260501185045 | 16 | 10 | 0.0 | 0.0 | 0.43 | 12.29 | 10.85 | 93 | 1012.2 |
| 20260501184938 | 16 | 113 | 0.0 | 0.0 | 0.46 | 12.29 | 10.85 | 93 | 1012.2 |
| 20260501184751 | 16 | 118 | 0.0 | 0.0 | 0.43 | 12.27 | 10.82 | 93 | 1012.2 |
| 20260501184644 | 16 | 119 | 0.0 | 8.0 | 0.46 | 12.27 | 10.82 | 93 | 1012.2 |
| 20260501184534 | 16 | 119 | 0.0 | 8.0 | 0.46 | 12.27 | 10.82 | 93 | 1012.2 |
| 20260501184406 | 16 | 28 | 0.0 | 8.0 | 0.46 | 12.27 | 10.82 | 93 | 1012.2 |
| 20260501184235 | 16 | 12 | 0.0 | 8.0 | 0.43 | 12.24 | 10.79 | 93 | 1012.3 |
| 20260501184127 | 16 | 11 | 0.0 | 8.0 | 0.41 | 12.22 | 10.77 | 93 | 1012.3 |
| 20260501184019 | 16 | 10 | 0.0 | 8.0 | 0.41 | 12.22 | 10.77 | 93 | 1012.3 |
| 20260501183911 | 16 | 64 | 0.0 | 8.0 | 0.41 | 12.22 | 10.77 | 92 | 1012.3 |
| 20260501183747 | 16 | 28 | 0.0 | 3.2 | 0.38 | 12.19 | 10.74 | 93 | 1012.3 |
| 20260501183639 | 16 | 64 | 0.0 | 3.2 | 0.38 | 12.17 | 10.72 | 92 | 1012.3 |
| 20260501183510 | 16 | 340 | 0.0 | 3.2 | 0.36 | 12.14 | 10.69 | 93 | 1012.3 |
| 20260501183400 | 16 | 360 | 0.0 | 3.2 | 0.33 | 12.12 | 10.67 | 93 | 1012.3 |
| 20260501183230 | 16 | 19 | 0.0 | 0.0 | 0.30 | 12.09 | 10.64 | 93 | 1012.3 |
| 20260501183101 | 16 | 28 | 0.0 | 0.0 | 0.28 | 12.06 | 10.62 | 93 | 1012.3 |
| 20260501182947 | 16 | 5 | 0.0 | 0.0 | 0.25 | 12.04 | 10.59 | 93 | 1012.3 |
| 20260501182817 | 16 | 5 | 0.0 | 0.0 | 0.23 | 12.01 | 10.57 | 93 | 1010.8 |
| 20260501182651 | 16 | 5 | 0.0 | 0.0 | 0.25 | 12.01 | 10.57 | 93 | 1010.8 |
| 20260501182542 | 16 | 11 | 0.0 | 0.0 | 0.23 | 11.99 | 10.54 | 92 | 1010.8 |
| 20260501182416 | 16 | 309 | 0.0 | 1.6 | 0.23 | 11.99 | 10.54 | 92 | 1010.8 |
| 20260501182301 | 16 | 42 | 0.0 | 1.6 | 0.23 | 11.99 | 10.54 | 92 | 1010.8 |
| 20260501182136 | 16 | 42 | 0.0 | 1.6 | 0.20 | 11.96 | 10.52 | 92 | 1010.8 |
| 20260501182028 | 16 | 23 | 0.0 | 1.6 | 0.20 | 11.96 | 10.52 | 92 | 1010.8 |
| 20260501181920 | 16 | 146 | 0.0 | 1.6 | 0.23 | 11.96 | 10.52 | 92 | 1010.8 |
| 20260501181751 | 16 | 39 | 0.0 | 1.6 | 0.23 | 11.96 | 10.52 | 92 | 1010.8 |
| 20260501181626 | 16 | 105 | 0.0 | 1.6 | 0.23 | 11.96 | 10.52 | 92 | 1010.8 |
| 20260501181519 | 16 | 82 | 0.0 | 4.8 | 0.23 | 11.96 | 10.52 | 92 | 1010.8 |
| 20260501181411 | 16 | 85 | 0.0 | 4.8 | 0.23 | 11.96 | 10.52 | 92 | 1010.8 |
| 20260501181303 | 16 | 78 | 0.0 | 4.8 | 0.23 | 11.94 | 10.49 | 92 | 1010.8 |
| 20260501181132 | 16 | 61 | 0.0 | 4.8 | 0.23 | 11.94 | 10.49 | 92 | 1010.8 |
| 20260501181002 | 16 | 49 | 0.0 | 4.8 | 0.23 | 11.94 | 10.49 | 92 | 1010.8 |
| 20260501180854 | 16 | 26 | 0.0 | 4.8 | 0.23 | 11.94 | 10.49 | 92 | 1010.8 |
| 20260501180746 | 16 | 5 | 0.0 | 4.8 | 0.23 | 11.94 | 10.49 | 92 | 1010.8 |
| 20260501180621 | 16 | 319 | 0.0 | 1.6 | 0.20 | 11.91 | 10.46 | 92 | 1010.8 |
| 20260501180511 | 16 | 84 | 0.0 | 1.6 | 0.20 | 11.91 | 10.46 | 92 | 1010.8 |
| 20260501180404 | 16 | 311 | 0.0 | 1.6 | 0.20 | 11.91 | 10.46 | 92 | 1010.8 |
| 20260501180257 | 16 | 9 | 0.0 | 6.4 | 0.20 | 11.91 | 10.46 | 92 | 1010.8 |
| 20260501180120 | 16 | 132 | 0.0 | 6.4 | 0.20 | 11.91 | 10.46 | 92 | 1010.8 |
| 20260501175958 | 16 | 54 | 0.0 | 6.4 | 0.18 | 11.89 | 10.44 | 92 | 1010.8 |
| 20260501175842 | 16 | 146 | 0.0 | 6.4 | 0.18 | 11.89 | 10.44 | 92 | 1012.3 |
| 20260501175733 | 16 | 113 | 0.0 | 6.4 | 0.18 | 11.89 | 10.44 | 92 | 1012.3 |
| 20260501175610 | 16 | 136 | 0.0 | 6.4 | 0.15 | 11.86 | 10.41 | 92 | 1012.3 |
| 20260501175502 | 16 | 44 | 0.0 | 6.4 | 0.15 | 11.86 | 10.41 | 92 | 1012.3 |
| 20260501175332 | 16 | 16 | 0.0 | 8.0 | 0.15 | 11.86 | 10.41 | 92 | 1012.3 |
| 20260501175225 | 16 | 343 | 1.6 | 8.0 | 0.15 | 11.86 | 10.41 | 92 | 1012.3 |
| 20260501175100 | 16 | 5 | 1.6 | 8.0 | 0.15 | 11.86 | 10.41 | 92 | 1012.3 |
| 20260501174953 | 16 | 35 | 0.0 | 6.4 | 0.13 | 11.84 | 10.39 | 92 | 1012.3 |
| 20260501174843 | 16 | 17 | 0.0 | 6.4 | 0.13 | 11.84 | 10.39 | 92 | 1012.3 |
| 20260501174735 | 16 | 338 | 1.6 | 6.4 | 0.13 | 11.81 | 10.39 | 92 | 1012.3 |
| 20260501174604 | 16 | 20 | 0.0 | 3.2 | 0.13 | 11.81 | 10.36 | 92 | 1012.3 |
| 20260501174455 | 16 | 5 | 0.0 | 3.2 | 0.13 | 11.81 | 10.36 | 92 | 1012.3 |
| 20260501174347 | 17 | 355 | 0.0 | 3.2 | 0.15 | 11.81 | 10.36 | 92 | 1012.7 |
| 20260501174239 | 17 | 5 | 0.0 | 3.2 | 0.15 | 11.81 | 10.36 | 92 | 1012.7 |
| 20260501174115 | 17 | 5 | 0.0 | 3.2 | 0.15 | 11.81 | 10.36 | 92 | 1012.7 |
| 20260501174007 | 17 | 324 | 0.0 | 3.2 | 0.15 | 11.81 | 10.36 | 92 | 1012.7 |
| 20260501173900 | 17 | 296 | 0.0 | 1.6 | 0.18 | 11.81 | 10.36 | 93 | 1012.7 |
| 20260501173748 | 17 | 333 | 0.0 | 1.6 | 0.18 | 11.79 | 10.34 | 92 | 1012.7 |
| 20260501173641 | 17 | 329 | 0.0 | 3.2 | 0.18 | 11.79 | 10.34 | 92 | 1012.7 |
| 20260501173512 | 17 | 24 | 0.0 | 3.2 | 0.18 | 11.79 | 10.34 | 92 | 1012.7 |
| 20260501173403 | 17 | 29 | 0.0 | 3.2 | 0.20 | 11.79 | 10.34 | 92 | 1012.7 |
| 20260501173255 | 17 | 348 | 0.0 | 3.2 | 0.23 | 11.79 | 10.34 | 92 | 1012.7 |
| 20260501173123 | 17 | 18 | 0.0 | 3.2 | 0.23 | 11.79 | 10.34 | 92 | 1012.7 |
| 20260501173016 | 17 | 336 | 0.0 | 3.2 | 0.25 | 11.79 | 10.34 | 92 | 1012.7 |
| 20260501172847 | 17 | 325 | 0.0 | 3.2 | 0.25 | 11.79 | 10.34 | 92 | 1013.1 |
| 20260501172739 | 17 | 5 | 0.0 | 3.2 | 0.23 | 11.76 | 10.31 | 93 | 1013.1 |
| 20260501172554 | 17 | 330 | 0.0 | 1.6 | 0.25 | 11.76 | 10.31 | 92 | 1013.1 |
| 20260501172405 | 17 | 321 | 0.0 | 1.6 | 0.28 | 11.76 | 10.31 | 92 | 1013.1 |
| 20260501172254 | 17 | 309 | 0.0 | 1.6 | 0.28 | 11.76 | 10.31 | 93 | 1013.1 |